ADDS METAR Data INFO
IDs: Format: Raw Decoded Include TAF

Data at: 1243 UTC 19 Oct 2017

KJER 191153Z AUTO 03013KT 10SM CLR 03/M03 A2994 RMK AO2 SLP123 T00331028 10111 20033 55005
KJER 191053Z AUTO 04010KT 10SM CLR 05/M03 A2993 RMK AO2 SLP116 T00501033
KJER 190953Z AUTO 04009KT 10SM CLR 06/M03 A2994 RMK AO2 SLP120 T00611028
KJER 190853Z AUTO 05010KT 10SM CLR 08/M03 A2996 RMK AO2 SLP122 T00781028 58008
KJER 190753Z AUTO 04011KT 10SM CLR 07/M02 A2997 RMK AO2 SLP130 T00671017
KJER 190653Z AUTO 03011KT 10SM CLR 08/M02 A2998 RMK AO2 SLP134 T00831017 402280033
KJER 190553Z AUTO 10009KT 10SM CLR 11/M02 A2998 RMK AO2 SLP135 T01061022 10206 20106 58010
KJER 190453Z AUTO 09011KT 10SM CLR 12/M02 A3000 RMK AO2 SLP143 T01171022
KJER 190353Z AUTO 09011KT 10SM CLR 12/M02 A3000 RMK AO2 SLP147 T01221022
KJER 190253Z AUTO 07011KT 10SM CLR 15/M03 A3002 RMK AO2 SLP153 T01501033 58008
KJER 190153Z AUTO 06010KT 10SM CLR 13/M01 A3003 RMK AO2 SLP160 T01331006
KJER 190053Z AUTO 04008KT 10SM CLR 15/02 A3003 RMK AO2 SLP157 T01500017
KJER 182353Z AUTO 35006KT 10SM CLR 21/00 A3004 RMK AO2 SLP158 T02060000 10228 20156 56020
KJER 182253Z AUTO 35005KT 10SM CLR 22/M04 A3006 RMK AO2 SLP162 T02221039
KJER 182153Z AUTO 00000KT 10SM CLR 22/M04 A3008 RMK AO2 SLP163 T02171044
KJER 182053Z AUTO 21003KT 10SM CLR 22/M04 A3011 RMK AO2 SLP174 T02171039 58023
KJER 181953Z AUTO 25003KT 10SM CLR 20/M03 A3014 RMK AO2 SLP188 T02001028
KJER 181853Z AUTO VRB04KT 10SM CLR 18/M02 A3017 RMK AO2 SLP194 T01831022
KJER 181753Z AUTO 00000KT 10SM CLR 16/M04 A3018 RMK AO2 SLP205 T01561039 10156 20050 50005
KJER 181653Z AUTO 22003KT 10SM CLR 13/M04 A3019 RMK AO2 SLP214 T01281039
KJER 181553Z AUTO 14004KT 10SM CLR 11/M03 A3018 RMK AO2 SLP213 T01061028
KJER 181453Z AUTO 10006KT 10SM CLR 07/M03 A3017 RMK AO2 SLP212 T00721033 51005
KJER 181353Z AUTO 00000KT 10SM CLR 07/M05 A3017 RMK AO2 SLP207 T00671050
KJER 181253Z AUTO 00000KT 10SM CLR 08/M05 A3016 RMK AO2 SLP201 T00831050
KJER 181153Z AUTO 13005KT 10SM CLR 05/M03 A3015 RMK AO2 SLP197 T00501033 10111 20033 50001
KJER 181053Z AUTO 12004KT 10SM CLR 06/M04 A3015 RMK AO2 SLP195 T00561039
KJER 180953Z AUTO 00000KT 10SM CLR 09/M04 A3015 RMK AO2 SLP190 T00891044
KJER 180853Z AUTO 13003KT 10SM CLR 08/M04 A3015 RMK AO2 SLP190 T00831039 55002
KJER 180753Z AUTO 12006KT 10SM CLR 07/M03 A3014 RMK AO2 SLP191 T00671033
KJER 180653Z AUTO 00000KT 10SM CLR 11/M04 A3015 RMK AO2 SLP191 T01111039 402060028
KJER 180553Z AUTO 19003KT 10SM CLR 11/M04 A3015 RMK AO2 SLP192 T01111039 10183 20083 51013
KJER 180453Z AUTO 15003KT 10SM CLR 09/M03 A3014 RMK AO2 SLP198 T00891028
KJER 180353Z AUTO 16006KT 10SM CLR 10/M02 A3012 RMK AO2 SLP198 T01001022
KJER 180253Z AUTO 14004KT 10SM CLR 11/M01 A3011 RMK AO2 SLP198 T01061011 53007
KJER 180153Z AUTO 18005KT 10SM CLR 14/M03 A3009 RMK AO2 SLP185 T01391028
KJER 180053Z AUTO 27005KT 10SM CLR 15/M01 A3008 RMK AO2 SLP179 T01501006